createdAt,value
2018-12-13T00:02:27.930Z,9.80
2018-12-13T00:04:57.658Z,9.80
2018-12-13T00:07:25.317Z,9.80
2018-12-13T00:09:53.138Z,9.80
2018-12-13T00:12:20.806Z,9.80
2018-12-13T00:14:50.515Z,9.80
2018-12-13T00:17:18.138Z,9.80
2018-12-13T00:19:45.770Z,9.80
2018-12-13T00:22:13.396Z,9.80
2018-12-13T00:24:40.978Z,9.80
2018-12-13T00:27:08.578Z,9.80
2018-12-13T00:29:36.258Z,9.80
2018-12-13T00:32:04.052Z,9.90
2018-12-13T00:34:31.732Z,9.90
2018-12-13T00:36:59.432Z,9.80
2018-12-13T00:39:27.072Z,9.80
2018-12-13T00:41:54.666Z,9.80
2018-12-13T00:44:22.276Z,9.80
2018-12-13T00:46:49.917Z,9.80
2018-12-13T00:49:17.536Z,9.80
2018-12-13T00:51:45.176Z,9.80
2018-12-13T00:54:12.838Z,9.70
2018-12-13T00:56:40.509Z,9.70
2018-12-13T00:59:08.152Z,9.70
2018-12-13T01:01:35.780Z,9.70
2018-12-13T01:04:03.526Z,9.70
2018-12-13T01:06:31.186Z,9.70
2018-12-13T01:08:58.848Z,9.70
2018-12-13T01:11:26.490Z,9.70
2018-12-13T01:13:54.334Z,9.60
2018-12-13T01:16:22.838Z,9.70
2018-12-13T01:18:50.705Z,9.70
2018-12-13T01:21:20.821Z,9.70
2018-12-13T01:23:48.288Z,9.70
2018-12-13T01:26:16.008Z,9.70
2018-12-13T01:28:43.731Z,9.70
2018-12-13T01:31:11.520Z,9.80
2018-12-13T01:33:39.166Z,9.80
2018-12-13T01:36:06.872Z,9.80
2018-12-13T01:38:34.586Z,9.80
2018-12-13T01:41:02.170Z,9.80
2018-12-13T01:43:29.862Z,9.70
2018-12-13T01:45:57.480Z,9.70
2018-12-13T01:48:25.118Z,9.70
2018-12-13T01:50:52.810Z,9.70
2018-12-13T01:53:20.466Z,9.70
2018-12-13T01:55:48.126Z,9.80
2018-12-13T01:58:15.760Z,9.70
2018-12-13T02:00:43.412Z,9.70
2018-12-13T02:03:11.267Z,9.70
2018-12-13T02:05:38.944Z,9.70
2018-12-13T02:08:06.582Z,9.70
2018-12-13T02:10:34.178Z,9.70
2018-12-13T02:13:01.796Z,9.70
2018-12-13T02:15:29.482Z,9.70
2018-12-13T02:17:57.173Z,9.70
2018-12-13T02:20:25.152Z,9.80
2018-12-13T02:22:52.738Z,9.80
2018-12-13T02:25:20.379Z,9.80
2018-12-13T02:27:48.025Z,9.80
2018-12-13T02:30:17.682Z,9.80
2018-12-13T02:32:45.312Z,9.80
2018-12-13T02:35:13.058Z,9.80
2018-12-13T02:37:40.723Z,9.90
2018-12-13T02:40:08.496Z,9.80
2018-12-13T02:42:36.220Z,9.80
2018-12-13T02:45:04.248Z,9.80
2018-12-13T02:47:31.960Z,9.80
2018-12-13T02:49:59.991Z,9.70
2018-12-13T02:52:27.583Z,9.80
2018-12-13T02:54:55.151Z,9.80
2018-12-13T02:57:22.740Z,9.80
2018-12-13T02:59:50.319Z,9.80
2018-12-13T03:02:17.910Z,9.80
2018-12-13T03:04:45.538Z,9.80
2018-12-13T03:07:19.843Z,9.80
2018-12-13T03:09:47.440Z,9.80
2018-12-13T03:12:15.075Z,9.70
2018-12-13T03:14:42.917Z,9.70
2018-12-13T03:17:10.693Z,9.70
2018-12-13T03:19:38.501Z,9.70
2018-12-13T03:22:06.155Z,9.70
2018-12-13T03:24:33.817Z,9.80
2018-12-13T03:27:01.599Z,9.80
2018-12-13T03:29:29.279Z,9.80
2018-12-13T03:31:57.050Z,9.80
2018-12-13T03:34:24.707Z,9.80
2018-12-13T03:36:52.511Z,9.80
2018-12-13T03:39:20.183Z,9.80
2018-12-13T03:41:47.884Z,9.80
2018-12-13T03:44:15.535Z,9.80
2018-12-13T03:46:43.251Z,9.80
2018-12-13T03:49:10.917Z,9.80
2018-12-13T03:51:38.648Z,9.80
2018-12-13T03:54:06.295Z,9.80
2018-12-13T03:56:33.989Z,9.80
2018-12-13T03:59:01.663Z,9.90
2018-12-13T04:01:29.459Z,9.80
2018-12-13T04:03:57.199Z,9.90
2018-12-13T04:06:24.928Z,9.90
2018-12-13T04:08:52.582Z,10.00
2018-12-13T04:11:20.178Z,10.00
2018-12-13T04:13:47.883Z,10.00
2018-12-13T04:16:15.590Z,10.00
2018-12-13T04:18:43.297Z,9.90
2018-12-13T04:21:10.913Z,9.90
2018-12-13T04:23:38.579Z,9.90
2018-12-13T04:26:06.243Z,9.90
2018-12-13T04:28:33.858Z,9.90
2018-12-13T04:31:01.485Z,9.90
2018-12-13T04:33:29.142Z,9.90
2018-12-13T04:35:56.791Z,9.90
2018-12-13T04:38:24.460Z,9.90
2018-12-13T04:40:52.080Z,9.90
2018-12-13T04:43:20.128Z,9.90
2018-12-13T04:45:48.546Z,9.90
2018-12-13T04:48:16.471Z,9.80
2018-12-13T04:50:45.910Z,9.90
2018-12-13T04:53:14.083Z,9.90
2018-12-13T04:55:42.245Z,9.90
2018-12-13T04:58:10.840Z,9.90
2018-12-13T05:00:38.738Z,9.90
2018-12-13T05:03:06.430Z,9.90
2018-12-13T05:05:34.083Z,9.90
2018-12-13T05:08:01.777Z,9.90
2018-12-13T05:10:40.789Z,9.90
2018-12-13T05:13:08.435Z,9.90
2018-12-13T05:15:36.055Z,9.90
2018-12-13T05:18:03.679Z,9.90
2018-12-13T05:20:31.359Z,9.90
2018-12-13T05:22:59.064Z,9.90
2018-12-13T05:25:26.715Z,9.90
2018-12-13T05:27:54.421Z,9.90
2018-12-13T05:30:22.086Z,9.90
2018-12-13T05:32:49.685Z,9.90
2018-12-13T05:35:17.503Z,9.90
2018-12-13T05:37:48.236Z,9.90
2018-12-13T05:40:14.782Z,9.90
2018-12-13T05:42:42.507Z,9.90
2018-12-13T05:45:10.318Z,9.90
2018-12-13T05:47:37.941Z,9.90
2018-12-13T05:50:05.870Z,9.90
2018-12-13T05:52:33.486Z,9.90
2018-12-13T05:55:01.116Z,9.90
2018-12-13T05:57:28.735Z,9.90
2018-12-13T05:59:56.385Z,10.00
2018-12-13T06:02:24.017Z,9.90
2018-12-13T06:04:51.801Z,9.90
2018-12-13T06:07:19.444Z,9.90
2018-12-13T06:09:47.213Z,9.80
2018-12-13T06:12:14.805Z,9.80
2018-12-13T06:14:42.463Z,9.90
2018-12-13T06:17:10.081Z,9.90
2018-12-13T06:19:37.767Z,9.90
2018-12-13T06:22:05.392Z,9.90
2018-12-13T06:24:33.054Z,9.80
2018-12-13T06:27:00.810Z,9.80
2018-12-13T06:29:28.454Z,9.80
2018-12-13T06:31:56.184Z,9.80
2018-12-13T06:34:23.874Z,9.80
2018-12-13T06:36:51.538Z,9.80
2018-12-13T06:39:20.200Z,9.80
2018-12-13T06:41:47.836Z,9.80
2018-12-13T06:44:15.532Z,9.80
2018-12-13T06:46:43.172Z,9.90
2018-12-13T06:49:10.816Z,9.90
2018-12-13T06:51:38.484Z,9.90
2018-12-13T06:54:06.136Z,9.90
2018-12-13T06:56:33.763Z,9.90
2018-12-13T06:59:01.394Z,9.90
2018-12-13T07:01:29.156Z,9.80
2018-12-13T07:03:56.955Z,9.80
2018-12-13T07:06:24.660Z,9.70
2018-12-13T07:08:52.614Z,9.80
2018-12-13T07:11:20.380Z,9.80
2018-12-13T07:13:48.106Z,9.90
2018-12-13T07:16:15.937Z,9.90
2018-12-13T07:18:43.810Z,9.80
2018-12-13T07:21:11.462Z,9.80
2018-12-13T07:23:39.221Z,9.70
2018-12-13T07:26:07.096Z,9.80
2018-12-13T07:28:34.844Z,9.90
2018-12-13T07:31:02.640Z,9.70
2018-12-13T07:33:30.429Z,9.70
2018-12-13T07:35:58.300Z,9.70
2018-12-13T07:38:26.073Z,9.70
2018-12-13T07:40:53.849Z,9.70
2018-12-13T07:43:21.546Z,9.80
2018-12-13T07:45:49.287Z,9.70
2018-12-13T07:48:17.060Z,9.60
2018-12-13T07:50:44.726Z,9.60
2018-12-13T07:53:12.489Z,9.50
2018-12-13T07:55:40.190Z,9.50
2018-12-13T07:58:07.929Z,9.50
2018-12-13T08:00:35.707Z,9.50
2018-12-13T08:03:03.401Z,9.50
2018-12-13T08:05:32.263Z,9.50
2018-12-13T08:07:59.987Z,9.60
2018-12-13T08:10:27.683Z,9.60
2018-12-13T08:12:55.462Z,9.60
2018-12-13T08:15:23.178Z,9.60
2018-12-13T08:17:50.943Z,9.60
2018-12-13T08:20:20.651Z,9.70
2018-12-13T08:22:48.285Z,9.70
2018-12-13T08:25:16.218Z,9.70
2018-12-13T08:27:44.115Z,9.70
2018-12-13T08:30:11.950Z,9.70
2018-12-13T08:32:39.780Z,9.80
2018-12-13T08:35:07.681Z,9.70
2018-12-13T08:37:35.415Z,9.70
2018-12-13T08:40:03.877Z,9.70
2018-12-13T08:42:31.719Z,9.70
2018-12-13T08:44:59.607Z,9.80
2018-12-13T08:47:27.509Z,9.80
2018-12-13T08:49:55.384Z,9.80
2018-12-13T08:52:23.213Z,9.80
2018-12-13T08:54:51.017Z,9.70
2018-12-13T08:57:18.944Z,9.80
2018-12-13T08:59:46.624Z,9.80
2018-12-13T09:02:14.447Z,9.70
2018-12-13T09:04:42.519Z,9.70
2018-12-13T09:07:10.370Z,9.70
2018-12-13T09:09:38.073Z,9.70
2018-12-13T09:12:05.889Z,9.70
2018-12-13T09:14:33.834Z,9.70
2018-12-13T09:17:01.533Z,9.80
2018-12-13T09:19:29.292Z,9.80
2018-12-13T09:21:57.069Z,9.80
2018-12-13T09:24:24.896Z,9.80
2018-12-13T09:26:52.650Z,9.80
2018-12-13T09:29:20.459Z,9.80
2018-12-13T09:31:48.275Z,9.90
2018-12-13T09:34:16.188Z,9.90
2018-12-13T09:36:43.954Z,9.90
2018-12-13T09:39:11.720Z,9.90
2018-12-13T09:41:39.414Z,9.90
2018-12-13T09:44:09.255Z,9.90
2018-12-13T09:46:36.954Z,9.90
2018-12-13T09:49:04.609Z,9.90
2018-12-13T09:51:33.572Z,10.00
2018-12-13T09:54:01.354Z,10.00
2018-12-13T09:56:29.043Z,10.00
2018-12-13T09:58:56.783Z,9.90
2018-12-13T10:01:24.417Z,9.90
2018-12-13T10:03:52.219Z,10.00
2018-12-13T10:06:19.881Z,10.00
2018-12-13T10:08:47.559Z,10.00
2018-12-13T10:11:15.220Z,10.00
2018-12-13T10:13:42.835Z,10.00
2018-12-13T10:16:10.731Z,9.90
2018-12-13T10:18:38.353Z,9.90
2018-12-13T10:21:07.019Z,9.90
2018-12-13T10:23:35.825Z,9.90
2018-12-13T10:26:03.521Z,9.90
2018-12-13T10:28:32.323Z,9.90
2018-12-13T10:30:59.964Z,9.90
2018-12-13T10:33:27.655Z,9.90
2018-12-13T10:35:55.396Z,9.90
2018-12-13T10:38:23.411Z,10.00
2018-12-13T10:40:51.229Z,10.00
2018-12-13T10:43:19.116Z,10.00
2018-12-13T10:45:47.652Z,10.00
2018-12-13T10:48:15.595Z,9.80
2018-12-13T10:50:43.365Z,9.70
2018-12-13T10:53:11.092Z,9.60
2018-12-13T10:55:38.791Z,9.60
2018-12-13T10:58:06.568Z,9.60
2018-12-13T11:00:41.960Z,9.70
2018-12-13T11:03:24.325Z,9.70
2018-12-13T11:05:52.271Z,9.70
2018-12-13T11:08:20.301Z,9.80
2018-12-13T11:10:48.059Z,9.80
2018-12-13T11:13:16.035Z,9.80
2018-12-13T11:15:43.867Z,9.80
2018-12-13T11:18:11.523Z,9.80
2018-12-13T11:20:39.184Z,9.80
2018-12-13T11:23:06.846Z,9.90
2018-12-13T11:25:34.512Z,9.80
2018-12-13T11:28:22.163Z,9.90
2018-12-13T11:30:49.857Z,9.90
2018-12-13T11:33:18.568Z,9.80
2018-12-13T11:35:46.230Z,9.80
2018-12-13T11:38:13.900Z,9.90
2018-12-13T11:40:41.634Z,9.90
2018-12-13T11:43:09.731Z,9.90
2018-12-13T11:45:37.817Z,9.80
2018-12-13T11:48:05.998Z,9.90
2018-12-13T11:50:34.830Z,9.90
2018-12-13T11:53:02.589Z,9.90
2018-12-13T11:55:36.578Z,9.90
2018-12-13T11:58:06.516Z,9.90
2018-12-13T12:00:34.387Z,9.90
2018-12-13T12:03:02.406Z,9.90
2018-12-13T12:05:30.198Z,9.90
2018-12-13T12:07:58.116Z,9.90
2018-12-13T12:10:26.007Z,9.90
2018-12-13T12:12:54.056Z,9.90
2018-12-13T12:15:22.214Z,10.00
2018-12-13T12:17:50.254Z,10.10
2018-12-13T12:20:18.172Z,10.20
2018-12-13T12:22:46.051Z,10.20
2018-12-13T12:25:14.012Z,10.10
2018-12-13T12:27:42.163Z,10.00
2018-12-13T12:30:10.199Z,10.00
2018-12-13T12:32:38.099Z,10.10
2018-12-13T12:35:06.487Z,10.20
2018-12-13T12:37:34.294Z,10.20
2018-12-13T12:40:02.235Z,10.30
2018-12-13T12:42:30.136Z,10.30
2018-12-13T12:44:57.907Z,10.20
2018-12-13T12:47:25.681Z,10.20
2018-12-13T12:49:53.481Z,10.20
2018-12-13T12:52:21.367Z,10.20
2018-12-13T12:54:49.401Z,10.20
2018-12-13T12:57:17.404Z,10.10
2018-12-13T12:59:45.307Z,10.10
2018-12-13T13:02:13.163Z,10.20
2018-12-13T13:04:41.117Z,10.10
2018-12-13T13:07:08.999Z,10.00
2018-12-13T13:09:36.871Z,9.80
2018-12-13T13:12:04.672Z,9.80
2018-12-13T13:14:32.410Z,9.80
2018-12-13T13:17:00.497Z,9.80
2018-12-13T13:19:28.257Z,9.80
2018-12-13T13:21:56.604Z,9.80
2018-12-13T13:24:24.461Z,9.80
2018-12-13T13:26:52.267Z,9.90
2018-12-13T13:29:20.171Z,9.90
2018-12-13T13:31:48.086Z,9.90
2018-12-13T13:34:15.952Z,9.90
2018-12-13T13:36:43.778Z,9.90
2018-12-13T13:39:11.641Z,10.00
2018-12-13T13:41:39.510Z,10.00
2018-12-13T13:44:07.277Z,10.00
2018-12-13T13:46:35.040Z,9.90
2018-12-13T13:49:03.008Z,9.90
2018-12-13T13:51:30.823Z,10.00
2018-12-13T13:53:58.527Z,10.00
2018-12-13T13:56:26.771Z,10.00
2018-12-13T13:58:55.524Z,10.00
2018-12-13T14:01:23.265Z,9.90
2018-12-13T14:03:51.143Z,9.90
2018-12-13T14:06:18.865Z,9.80
2018-12-13T14:08:46.566Z,9.80
2018-12-13T14:11:14.320Z,9.80
2018-12-13T14:13:41.943Z,9.80
2018-12-13T14:16:09.595Z,9.80
2018-12-13T14:18:37.370Z,9.80
2018-12-13T14:21:05.080Z,9.70
2018-12-13T14:23:32.722Z,9.70
2018-12-13T14:26:00.441Z,9.70
2018-12-13T14:28:28.214Z,9.80
2018-12-13T14:30:55.836Z,9.80
2018-12-13T14:33:23.540Z,9.90
2018-12-13T14:35:51.179Z,10.00
2018-12-13T14:38:18.899Z,10.00
2018-12-13T14:40:48.589Z,10.00
2018-12-13T14:43:18.327Z,10.00
2018-12-13T14:45:45.965Z,10.00
2018-12-13T14:48:13.694Z,10.00
2018-12-13T14:50:41.387Z,10.00
2018-12-13T14:53:08.987Z,10.00
2018-12-13T14:55:36.687Z,10.00
2018-12-13T14:58:04.343Z,10.00
2018-12-13T15:00:31.984Z,10.00
2018-12-13T15:02:59.834Z,10.10
2018-12-13T15:05:27.658Z,10.10
2018-12-13T15:07:55.327Z,10.00
2018-12-13T15:10:22.991Z,10.00
2018-12-13T15:12:50.694Z,10.00
2018-12-13T15:15:18.394Z,10.00
2018-12-13T15:17:46.127Z,9.90
2018-12-13T15:20:13.816Z,9.90
2018-12-13T15:22:41.507Z,9.90
2018-12-13T15:25:09.353Z,9.90
2018-12-13T15:27:37.484Z,10.00
2018-12-13T15:30:06.377Z,9.90
2018-12-13T15:32:34.504Z,9.90
2018-12-13T15:35:02.736Z,9.90
2018-12-13T15:37:30.668Z,9.90
2018-12-13T15:39:58.658Z,9.90
2018-12-13T15:42:26.733Z,9.90
2018-12-13T15:44:54.898Z,9.80
2018-12-13T15:47:22.897Z,9.80
2018-12-13T15:49:50.962Z,9.90
2018-12-13T15:52:19.374Z,9.90
2018-12-13T15:54:47.449Z,9.80
2018-12-13T15:57:15.621Z,9.80
2018-12-13T15:59:44.169Z,9.80
2018-12-13T16:02:12.286Z,9.80
2018-12-13T16:04:40.183Z,9.80
2018-12-13T16:07:08.352Z,9.80
2018-12-13T16:09:36.563Z,9.80
2018-12-13T16:12:04.475Z,9.80
2018-12-13T16:14:32.514Z,9.80
2018-12-13T16:17:01.383Z,9.80
2018-12-13T16:19:29.089Z,9.80
2018-12-13T16:21:57.137Z,9.70
2018-12-13T16:24:24.942Z,9.70
2018-12-13T16:26:52.732Z,9.70
2018-12-13T16:29:20.562Z,9.70
2018-12-13T16:31:48.280Z,9.70
2018-12-13T16:34:16.065Z,9.70
2018-12-13T16:36:44.054Z,9.70
2018-12-13T16:39:11.903Z,9.70
2018-12-13T16:41:39.852Z,9.70
2018-12-13T16:44:07.686Z,9.80
2018-12-13T16:46:35.683Z,9.80
2018-12-13T16:49:03.785Z,9.70
2018-12-13T16:51:31.739Z,9.70
2018-12-13T16:53:59.632Z,9.80
2018-12-13T16:56:27.622Z,9.80
2018-12-13T16:58:55.390Z,9.80
2018-12-13T17:01:23.229Z,9.80
2018-12-13T17:03:51.023Z,9.80
2018-12-13T17:06:18.851Z,9.80
2018-12-13T17:08:46.629Z,9.70
2018-12-13T17:11:14.495Z,9.70
2018-12-13T17:13:42.349Z,9.70
2018-12-13T17:16:10.364Z,9.60
2018-12-13T17:18:38.212Z,9.60
2018-12-13T17:21:06.032Z,9.60
2018-12-13T17:23:33.838Z,9.50
2018-12-13T17:26:01.698Z,9.50
2018-12-13T17:28:29.524Z,9.50
2018-12-13T17:30:57.458Z,9.40
2018-12-13T17:33:25.600Z,9.40
2018-12-13T17:35:53.440Z,9.40
2018-12-13T17:38:22.566Z,9.40
2018-12-13T17:40:50.581Z,9.40
2018-12-13T17:43:18.409Z,9.30
2018-12-13T17:45:46.361Z,9.30
2018-12-13T17:48:14.298Z,9.40
2018-12-13T17:50:42.279Z,9.40
2018-12-13T17:53:10.605Z,9.40
2018-12-13T17:55:39.924Z,9.40
2018-12-13T17:58:07.951Z,9.40
2018-12-13T18:00:35.884Z,9.30
2018-12-13T18:03:03.682Z,9.20
2018-12-13T18:05:31.402Z,9.30
2018-12-13T18:07:59.170Z,9.30
2018-12-13T18:10:29.543Z,9.30
2018-12-13T18:12:56.955Z,9.30
2018-12-13T18:15:26.176Z,9.30
2018-12-13T18:17:54.527Z,9.30
2018-12-13T18:20:23.338Z,9.30
2018-12-13T18:22:51.254Z,9.30
2018-12-13T18:25:19.268Z,9.40
2018-12-13T18:27:49.307Z,9.40
2018-12-13T18:30:17.375Z,9.40
2018-12-13T18:32:45.157Z,9.30
2018-12-13T18:35:12.985Z,9.30
2018-12-13T18:37:40.803Z,9.30
2018-12-13T18:40:08.994Z,9.20
2018-12-13T18:42:37.051Z,9.20
2018-12-13T18:45:05.322Z,9.30
2018-12-13T18:47:33.074Z,9.30
2018-12-13T18:50:00.855Z,9.20
2018-12-13T18:52:31.062Z,9.20
2018-12-13T18:54:59.128Z,9.20
2018-12-13T18:57:27.185Z,9.20
2018-12-13T18:59:55.370Z,9.30
2018-12-13T19:02:23.420Z,9.30
2018-12-13T19:04:51.170Z,9.30
2018-12-13T19:07:19.558Z,9.30
2018-12-13T19:09:47.941Z,9.20
2018-12-13T19:12:15.664Z,9.00
2018-12-13T19:14:43.499Z,9.00
2018-12-13T19:17:11.348Z,8.90
2018-12-13T19:19:39.360Z,8.80
2018-12-13T19:22:07.285Z,8.70
2018-12-13T19:24:35.257Z,8.70
2018-12-13T19:27:03.322Z,8.70
2018-12-13T19:29:31.522Z,8.80
2018-12-13T19:31:59.395Z,8.70
2018-12-13T19:34:28.563Z,8.70
2018-12-13T19:36:56.840Z,8.80
2018-12-13T19:39:24.646Z,8.90
2018-12-13T19:41:53.976Z,8.90
2018-12-13T19:44:23.862Z,8.90
2018-12-13T19:46:51.699Z,9.00
2018-12-13T19:49:21.512Z,8.90
2018-12-13T19:51:51.005Z,9.00
2018-12-13T19:54:20.858Z,8.90
2018-12-13T19:56:49.505Z,8.80
2018-12-13T19:59:18.870Z,8.80
2018-12-13T20:01:48.703Z,8.80
2018-12-13T20:04:16.729Z,8.80
2018-12-13T20:06:44.697Z,8.80
2018-12-13T20:09:13.206Z,8.70
2018-12-13T20:11:41.905Z,8.70
2018-12-13T20:14:11.268Z,8.70
2018-12-13T20:16:40.098Z,8.70
2018-12-13T20:19:08.875Z,8.70
2018-12-13T20:21:38.207Z,8.60
2018-12-13T20:24:18.623Z,8.60
2018-12-13T20:26:51.823Z,8.60
2018-12-13T20:29:20.874Z,8.60
2018-12-13T20:31:50.547Z,8.60
2018-12-13T20:34:19.937Z,8.50
2018-12-13T20:36:48.670Z,8.50
2018-12-13T20:39:16.571Z,8.60
2018-12-13T20:41:44.512Z,8.70
2018-12-13T20:44:12.600Z,8.70
2018-12-13T20:46:42.279Z,8.70
2018-12-13T20:49:10.250Z,8.60
2018-12-13T20:51:38.312Z,8.80
2018-12-13T20:54:06.501Z,8.80
2018-12-13T20:56:36.062Z,8.90
2018-12-13T20:59:04.117Z,9.00
2018-12-13T21:01:42.403Z,9.00
2018-12-13T21:04:10.554Z,9.00
2018-12-13T21:06:38.929Z,9.10
2018-12-13T21:09:07.190Z,9.20
2018-12-13T21:11:35.288Z,9.30
2018-12-13T21:14:03.303Z,9.40
2018-12-13T21:16:31.377Z,9.40
2018-12-13T21:19:00.749Z,9.40
2018-12-13T21:21:28.574Z,9.40
2018-12-13T21:23:56.496Z,9.40
2018-12-13T21:26:24.329Z,9.50
2018-12-13T21:28:53.137Z,9.50
2018-12-13T21:31:22.042Z,9.40
2018-12-13T21:33:50.358Z,9.30
2018-12-13T21:36:18.588Z,9.20
2018-12-13T21:38:46.526Z,9.20
2018-12-13T21:41:14.842Z,9.20
2018-12-13T21:43:42.733Z,9.20
2018-12-13T21:46:10.600Z,9.20
2018-12-13T21:48:38.474Z,9.10
2018-12-13T21:51:07.231Z,9.20
2018-12-13T21:53:35.308Z,9.30
2018-12-13T21:56:03.569Z,9.30
2018-12-13T21:58:31.447Z,9.20
2018-12-13T22:00:59.318Z,9.20
2018-12-13T22:03:27.103Z,9.20
2018-12-13T22:05:54.928Z,9.10
2018-12-13T22:08:22.824Z,9.10
2018-12-13T22:10:50.583Z,9.10
2018-12-13T22:13:18.992Z,9.10
2018-12-13T22:15:47.045Z,9.20
2018-12-13T22:18:15.646Z,9.30
2018-12-13T22:20:43.398Z,9.30
2018-12-13T22:23:11.120Z,9.40
2018-12-13T22:25:38.854Z,9.40
2018-12-13T22:28:06.721Z,9.40
2018-12-13T22:30:34.387Z,9.40
2018-12-13T22:33:02.134Z,9.40
2018-12-13T22:35:30.141Z,9.40
2018-12-13T22:37:57.798Z,9.30
2018-12-13T22:40:25.509Z,9.30
2018-12-13T22:42:53.498Z,9.20
2018-12-13T22:45:21.112Z,9.30
2018-12-13T22:47:48.713Z,9.20
2018-12-13T22:50:16.395Z,9.10
2018-12-13T22:52:44.114Z,9.10
2018-12-13T22:55:11.889Z,9.10
2018-12-13T22:57:39.610Z,9.00
2018-12-13T23:00:10.158Z,9.00
2018-12-13T23:02:38.067Z,9.00
2018-12-13T23:05:06.170Z,8.90
2018-12-13T23:07:33.936Z,8.80
2018-12-13T23:10:03.177Z,8.80
2018-12-13T23:12:31.855Z,9.00
2018-12-13T23:14:59.516Z,9.00
2018-12-13T23:17:27.206Z,9.10
2018-12-13T23:19:54.901Z,9.20
2018-12-13T23:22:22.491Z,9.20
2018-12-13T23:24:50.183Z,9.20
2018-12-13T23:27:17.871Z,9.20
2018-12-13T23:29:45.515Z,9.30
2018-12-13T23:32:13.435Z,9.30
2018-12-13T23:34:41.057Z,9.20
2018-12-13T23:37:08.695Z,9.20
2018-12-13T23:39:36.359Z,9.20
2018-12-13T23:42:04.040Z,9.10
2018-12-13T23:44:31.701Z,9.10
2018-12-13T23:46:59.386Z,9.00
2018-12-13T23:49:27.189Z,9.00
2018-12-13T23:51:54.831Z,9.00
2018-12-13T23:54:22.505Z,9.00
2018-12-13T23:56:50.202Z,9.00
2018-12-13T23:59:17.794Z,9.00
